Arvaiheer, Mongolia
Current Conditions -  °F | °C
As of 4:30 PM on Friday 31 Oct 2014 (Local Time) from ZMUB Reporting Station
Few Clouds Few Clouds  
Wind Chill: 30°   Ceiling: Unl
Heat Index: 37°   Visibility: 6mi
Dew Point: 18°   Wind: 11mph
Humidity: 45%   Direction: 290°WNW
Pressure: 29.94"   Gusts: NA
Location:  46.27°N, 102.78°E
Report Text: ZMUB 310830Z 29005MPS 9999 FEW030CB FEW033 03/M08 Q1014 NOSIG RMK QFE653.5 45 MOP
Loading
Personal Weather Stations






























Interactive Weather Map
Tropical Storm Tracking
New forecast layout! Learn more

10-Day Weather Forecast

Advertisements
Track Severe Weather on mobile